sensor_id;sensor_type;location;lat;lon;timestamp;temperature;humidity
13332;DHT22;6735;51.456;12.626;2023-03-02T00:01:27;-1.10;71.90
13332;DHT22;6735;51.456;12.626;2023-03-02T00:03:53;-1.10;72.00
13332;DHT22;6735;51.456;12.626;2023-03-02T00:06:24;-1.10;71.80
13332;DHT22;6735;51.456;12.626;2023-03-02T00:08:49;-1.10;71.80
13332;DHT22;6735;51.456;12.626;2023-03-02T00:11:15;-1.10;71.70
13332;DHT22;6735;51.456;12.626;2023-03-02T00:13:41;-1.10;71.60
13332;DHT22;6735;51.456;12.626;2023-03-02T00:16:07;-1.10;71.80
13332;DHT22;6735;51.456;12.626;2023-03-02T00:18:32;-1.10;72.50
13332;DHT22;6735;51.456;12.626;2023-03-02T00:20:58;-1.10;72.10
13332;DHT22;6735;51.456;12.626;2023-03-02T00:23:24;-1.10;72.60
13332;DHT22;6735;51.456;12.626;2023-03-02T00:25:49;-1.10;72.50
13332;DHT22;6735;51.456;12.626;2023-03-02T00:28:14;-1.10;72.00
13332;DHT22;6735;51.456;12.626;2023-03-02T00:30:40;-1.20;72.20
13332;DHT22;6735;51.456;12.626;2023-03-02T00:33:05;-1.20;72.40
13332;DHT22;6735;51.456;12.626;2023-03-02T00:35:39;-1.20;73.10
13332;DHT22;6735;51.456;12.626;2023-03-02T00:38:05;-1.30;72.70
13332;DHT22;6735;51.456;12.626;2023-03-02T00:40:31;-1.40;72.50
13332;DHT22;6735;51.456;12.626;2023-03-02T00:42:57;-1.40;72.90
13332;DHT22;6735;51.456;12.626;2023-03-02T00:45:22;-1.40;73.50
13332;DHT22;6735;51.456;12.626;2023-03-02T00:47:49;-1.40;73.70
13332;DHT22;6735;51.456;12.626;2023-03-02T00:50:14;-1.50;74.50
13332;DHT22;6735;51.456;12.626;2023-03-02T00:52:40;-1.50;74.40
13332;DHT22;6735;51.456;12.626;2023-03-02T00:55:05;-1.50;74.80
13332;DHT22;6735;51.456;12.626;2023-03-02T00:57:31;-1.50;74.90
13332;DHT22;6735;51.456;12.626;2023-03-02T00:59:56;-1.50;74.80
13332;DHT22;6735;51.456;12.626;2023-03-02T01:02:22;-1.60;74.60
13332;DHT22;6735;51.456;12.626;2023-03-02T01:04:47;-1.60;74.50
13332;DHT22;6735;51.456;12.626;2023-03-02T01:07:16;-1.60;74.80
13332;DHT22;6735;51.456;12.626;2023-03-02T01:09:43;-1.60;74.90
13332;DHT22;6735;51.456;12.626;2023-03-02T01:12:09;-1.60;74.40
13332;DHT22;6735;51.456;12.626;2023-03-02T01:14:40;-1.70;74.40
13332;DHT22;6735;51.456;12.626;2023-03-02T01:17:07;-1.70;74.20
13332;DHT22;6735;51.456;12.626;2023-03-02T01:19:32;-1.70;74.40
13332;DHT22;6735;51.456;12.626;2023-03-02T01:21:58;-1.70;74.30
13332;DHT22;6735;51.456;12.626;2023-03-02T01:24:24;-1.80;73.90
13332;DHT22;6735;51.456;12.626;2023-03-02T01:26:49;-1.70;73.80
13332;DHT22;6735;51.456;12.626;2023-03-02T01:29:15;-1.80;73.60
13332;DHT22;6735;51.456;12.626;2023-03-02T01:31:41;-1.80;73.60
13332;DHT22;6735;51.456;12.626;2023-03-02T01:34:06;-1.80;73.40
13332;DHT22;6735;51.456;12.626;2023-03-02T01:36:32;-1.80;73.50
13332;DHT22;6735;51.456;12.626;2023-03-02T01:38:58;-1.80;73.50
13332;DHT22;6735;51.456;12.626;2023-03-02T01:41:23;-1.80;73.50
13332;DHT22;6735;51.456;12.626;2023-03-02T01:43:49;-1.80;73.50
13332;DHT22;6735;51.456;12.626;2023-03-02T01:46:21;-1.90;73.50
13332;DHT22;6735;51.456;12.626;2023-03-02T01:48:59;-1.90;73.20
13332;DHT22;6735;51.456;12.626;2023-03-02T01:51:27;-1.90;73.10
13332;DHT22;6735;51.456;12.626;2023-03-02T01:53:59;-1.90;73.10
13332;DHT22;6735;51.456;12.626;2023-03-02T01:56:29;-1.90;73.10
13332;DHT22;6735;51.456;12.626;2023-03-02T01:58:59;-2.00;73.00
13332;DHT22;6735;51.456;12.626;2023-03-02T02:01:29;-2.00;73.00
13332;DHT22;6735;51.456;12.626;2023-03-02T02:03:56;-2.00;73.10
13332;DHT22;6735;51.456;12.626;2023-03-02T02:06:30;-2.00;73.00
13332;DHT22;6735;51.456;12.626;2023-03-02T02:08:57;-2.00;72.90
13332;DHT22;6735;51.456;12.626;2023-03-02T02:11:25;-2.10;73.00
13332;DHT22;6735;51.456;12.626;2023-03-02T02:13:57;-2.10;73.10
13332;DHT22;6735;51.456;12.626;2023-03-02T02:16:24;-2.10;72.90
13332;DHT22;6735;51.456;12.626;2023-03-02T02:18:50;-2.20;73.20
13332;DHT22;6735;51.456;12.626;2023-03-02T02:21:15;-2.20;73.30
13332;DHT22;6735;51.456;12.626;2023-03-02T02:23:55;-2.20;73.40
13332;DHT22;6735;51.456;12.626;2023-03-02T02:26:28;-2.30;73.80
13332;DHT22;6735;51.456;12.626;2023-03-02T02:29:10;-2.30;73.80
13332;DHT22;6735;51.456;12.626;2023-03-02T02:34:19;-2.30;74.00
13332;DHT22;6735;51.456;12.626;2023-03-02T02:36:48;-2.30;74.10
13332;DHT22;6735;51.456;12.626;2023-03-02T02:39:27;-2.30;74.10
13332;DHT22;6735;51.456;12.626;2023-03-02T02:41:57;-2.40;73.70
13332;DHT22;6735;51.456;12.626;2023-03-02T02:44:23;-2.40;73.60
13332;DHT22;6735;51.456;12.626;2023-03-02T02:46:48;-2.40;74.00
13332;DHT22;6735;51.456;12.626;2023-03-02T02:49:35;-2.40;74.20
13332;DHT22;6735;51.456;12.626;2023-03-02T02:52:03;-2.50;74.20
13332;DHT22;6735;51.456;12.626;2023-03-02T02:54:30;-2.60;74.50
13332;DHT22;6735;51.456;12.626;2023-03-02T02:56:58;-2.60;74.70
13332;DHT22;6735;51.456;12.626;2023-03-02T02:59:29;-2.60;74.80
13332;DHT22;6735;51.456;12.626;2023-03-02T03:01:56;-2.60;75.10
13332;DHT22;6735;51.456;12.626;2023-03-02T03:04:25;-2.60;75.80
13332;DHT22;6735;51.456;12.626;2023-03-02T03:06:57;-2.70;75.40
13332;DHT22;6735;51.456;12.626;2023-03-02T03:09:24;-2.70;75.60
13332;DHT22;6735;51.456;12.626;2023-03-02T03:11:56;-2.70;75.80
13332;DHT22;6735;51.456;12.626;2023-03-02T03:14:35;-2.70;75.80
13332;DHT22;6735;51.456;12.626;2023-03-02T03:17:02;-2.60;75.90
13332;DHT22;6735;51.456;12.626;2023-03-02T03:19:30;-2.70;75.30
13332;DHT22;6735;51.456;12.626;2023-03-02T03:21:58;-2.70;75.30
13332;DHT22;6735;51.456;12.626;2023-03-02T03:24:25;-2.70;75.10
13332;DHT22;6735;51.456;12.626;2023-03-02T03:26:51;-2.70;74.90
13332;DHT22;6735;51.456;12.626;2023-03-02T03:29:19;-2.80;75.50
13332;DHT22;6735;51.456;12.626;2023-03-02T03:31:48;-2.80;75.50
13332;DHT22;6735;51.456;12.626;2023-03-02T03:34:14;-2.80;75.90
13332;DHT22;6735;51.456;12.626;2023-03-02T03:36:40;-2.70;76.90
13332;DHT22;6735;51.456;12.626;2023-03-02T03:39:08;-2.70;76.70
13332;DHT22;6735;51.456;12.626;2023-03-02T03:41:34;-2.70;76.40
13332;DHT22;6735;51.456;12.626;2023-03-02T03:44:00;-2.60;76.40
13332;DHT22;6735;51.456;12.626;2023-03-02T03:46:25;-2.70;76.40
13332;DHT22;6735;51.456;12.626;2023-03-02T03:48:51;-2.70;76.40
13332;DHT22;6735;51.456;12.626;2023-03-02T03:51:16;-2.60;76.20
13332;DHT22;6735;51.456;12.626;2023-03-02T03:53:42;-2.60;76.00
13332;DHT22;6735;51.456;12.626;2023-03-02T03:56:07;-2.70;76.30
13332;DHT22;6735;51.456;12.626;2023-03-02T03:58:33;-2.70;76.30
13332;DHT22;6735;51.456;12.626;2023-03-02T04:00:59;-2.60;76.50
13332;DHT22;6735;51.456;12.626;2023-03-02T04:03:25;-2.70;76.60
13332;DHT22;6735;51.456;12.626;2023-03-02T04:05:51;-2.70;76.70
13332;DHT22;6735;51.456;12.626;2023-03-02T04:08:17;-2.70;76.30
13332;DHT22;6735;51.456;12.626;2023-03-02T04:10:44;-2.70;76.00
13332;DHT22;6735;51.456;12.626;2023-03-02T04:13:10;-2.70;76.30
13332;DHT22;6735;51.456;12.626;2023-03-02T04:15:35;-2.70;76.70
13332;DHT22;6735;51.456;12.626;2023-03-02T04:18:01;-2.80;76.80
13332;DHT22;6735;51.456;12.626;2023-03-02T04:20:27;-2.70;76.90
13332;DHT22;6735;51.456;12.626;2023-03-02T04:22:54;-2.80;76.50
13332;DHT22;6735;51.456;12.626;2023-03-02T04:25:24;-2.80;76.40
13332;DHT22;6735;51.456;12.626;2023-03-02T04:27:51;-2.80;76.60
13332;DHT22;6735;51.456;12.626;2023-03-02T04:30:19;-2.80;76.60
13332;DHT22;6735;51.456;12.626;2023-03-02T04:32:45;-2.80;76.70
13332;DHT22;6735;51.456;12.626;2023-03-02T04:35:12;-2.80;76.80
13332;DHT22;6735;51.456;12.626;2023-03-02T04:37:39;-2.80;77.10
13332;DHT22;6735;51.456;12.626;2023-03-02T04:40:06;-2.80;77.00
13332;DHT22;6735;51.456;12.626;2023-03-02T04:42:33;-2.80;76.80
13332;DHT22;6735;51.456;12.626;2023-03-02T04:44:58;-2.80;76.30
13332;DHT22;6735;51.456;12.626;2023-03-02T04:47:24;-2.80;76.20
13332;DHT22;6735;51.456;12.626;2023-03-02T04:49:50;-2.80;76.40
13332;DHT22;6735;51.456;12.626;2023-03-02T04:52:19;-2.80;76.40
13332;DHT22;6735;51.456;12.626;2023-03-02T04:54:45;-2.90;76.40
13332;DHT22;6735;51.456;12.626;2023-03-02T04:57:10;-2.90;76.80
13332;DHT22;6735;51.456;12.626;2023-03-02T04:59:36;-2.90;76.80
13332;DHT22;6735;51.456;12.626;2023-03-02T05:02:02;-2.90;76.70
13332;DHT22;6735;51.456;12.626;2023-03-02T05:04:28;-3.00;76.70
13332;DHT22;6735;51.456;12.626;2023-03-02T05:06:54;-3.00;76.90
13332;DHT22;6735;51.456;12.626;2023-03-02T05:09:20;-3.00;76.50
13332;DHT22;6735;51.456;12.626;2023-03-02T05:11:52;-3.00;76.60
13332;DHT22;6735;51.456;12.626;2023-03-02T05:14:18;-3.00;76.70
13332;DHT22;6735;51.456;12.626;2023-03-02T05:16:46;-3.00;76.80
13332;DHT22;6735;51.456;12.626;2023-03-02T05:19:12;-3.00;76.90
13332;DHT22;6735;51.456;12.626;2023-03-02T05:21:38;-3.00;76.90
13332;DHT22;6735;51.456;12.626;2023-03-02T05:24:04;-3.00;76.80
13332;DHT22;6735;51.456;12.626;2023-03-02T05:26:30;-3.00;76.30
13332;DHT22;6735;51.456;12.626;2023-03-02T05:28:56;-3.00;76.60
13332;DHT22;6735;51.456;12.626;2023-03-02T05:31:28;-3.00;76.60
13332;DHT22;6735;51.456;12.626;2023-03-02T05:33:54;-3.00;76.80
13332;DHT22;6735;51.456;12.626;2023-03-02T05:36:21;-3.00;76.40
13332;DHT22;6735;51.456;12.626;2023-03-02T05:38:46;-3.00;76.40
13332;DHT22;6735;51.456;12.626;2023-03-02T05:41:12;-3.10;76.20
13332;DHT22;6735;51.456;12.626;2023-03-02T05:43:38;-3.10;76.40
13332;DHT22;6735;51.456;12.626;2023-03-02T05:46:03;-3.10;76.60
13332;DHT22;6735;51.456;12.626;2023-03-02T05:48:30;-3.20;76.50
13332;DHT22;6735;51.456;12.626;2023-03-02T05:50:56;-3.20;76.60
13332;DHT22;6735;51.456;12.626;2023-03-02T05:53:22;-3.20;76.70
13332;DHT22;6735;51.456;12.626;2023-03-02T05:55:48;-3.20;76.90
13332;DHT22;6735;51.456;12.626;2023-03-02T05:58:15;-3.20;77.00
13332;DHT22;6735;51.456;12.626;2023-03-02T06:00:41;-3.30;77.10
13332;DHT22;6735;51.456;12.626;2023-03-02T06:03:07;-3.30;77.20
13332;DHT22;6735;51.456;12.626;2023-03-02T06:05:33;-3.30;77.30
13332;DHT22;6735;51.456;12.626;2023-03-02T06:07:59;-3.20;77.20
13332;DHT22;6735;51.456;12.626;2023-03-02T06:10:24;-3.20;77.60
13332;DHT22;6735;51.456;12.626;2023-03-02T06:12:50;-3.20;77.40
13332;DHT22;6735;51.456;12.626;2023-03-02T06:15:18;-3.20;77.30
13332;DHT22;6735;51.456;12.626;2023-03-02T06:17:47;-3.20;77.40
13332;DHT22;6735;51.456;12.626;2023-03-02T06:20:12;-3.20;77.40
13332;DHT22;6735;51.456;12.626;2023-03-02T06:22:40;-3.10;77.30
13332;DHT22;6735;51.456;12.626;2023-03-02T06:25:08;-3.10;77.50
13332;DHT22;6735;51.456;12.626;2023-03-02T06:27:34;-3.00;77.40
13332;DHT22;6735;51.456;12.626;2023-03-02T06:29:59;-2.90;77.60
13332;DHT22;6735;51.456;12.626;2023-03-02T06:32:25;-2.90;77.70
13332;DHT22;6735;51.456;12.626;2023-03-02T06:34:50;-2.80;77.90
13332;DHT22;6735;51.456;12.626;2023-03-02T06:37:16;-2.80;77.80
13332;DHT22;6735;51.456;12.626;2023-03-02T06:39:41;-2.70;77.30
13332;DHT22;6735;51.456;12.626;2023-03-02T06:42:06;-2.60;77.40
13332;DHT22;6735;51.456;12.626;2023-03-02T06:44:32;-2.50;77.20
13332;DHT22;6735;51.456;12.626;2023-03-02T06:46:57;-2.50;77.40
13332;DHT22;6735;51.456;12.626;2023-03-02T06:49:23;-2.40;77.20
13332;DHT22;6735;51.456;12.626;2023-03-02T06:51:49;-2.40;77.10
13332;DHT22;6735;51.456;12.626;2023-03-02T06:54:15;-2.30;77.30
13332;DHT22;6735;51.456;12.626;2023-03-02T06:56:41;-2.30;77.30
13332;DHT22;6735;51.456;12.626;2023-03-02T06:59:06;-2.30;77.70
13332;DHT22;6735;51.456;12.626;2023-03-02T07:01:32;-2.20;77.50
13332;DHT22;6735;51.456;12.626;2023-03-02T07:04:00;-2.10;77.40
13332;DHT22;6735;51.456;12.626;2023-03-02T07:06:26;-2.10;77.10
13332;DHT22;6735;51.456;12.626;2023-03-02T07:08:52;-2.10;77.00
13332;DHT22;6735;51.456;12.626;2023-03-02T07:11:17;-2.00;77.00
13332;DHT22;6735;51.456;12.626;2023-03-02T07:13:43;-2.00;76.40
13332;DHT22;6735;51.456;12.626;2023-03-02T07:16:12;-1.90;76.60
13332;DHT22;6735;51.456;12.626;2023-03-02T07:18:39;-1.80;76.30
13332;DHT22;6735;51.456;12.626;2023-03-02T07:21:05;-1.80;76.20
13332;DHT22;6735;51.456;12.626;2023-03-02T07:23:31;-1.80;76.10
13332;DHT22;6735;51.456;12.626;2023-03-02T07:25:56;-1.70;76.10
13332;DHT22;6735;51.456;12.626;2023-03-02T07:28:22;-1.60;76.20
13332;DHT22;6735;51.456;12.626;2023-03-02T07:30:49;-1.50;76.10
13332;DHT22;6735;51.456;12.626;2023-03-02T07:33:14;-1.40;75.70
13332;DHT22;6735;51.456;12.626;2023-03-02T07:35:40;-1.30;75.70
13332;DHT22;6735;51.456;12.626;2023-03-02T07:38:05;-1.20;75.20
13332;DHT22;6735;51.456;12.626;2023-03-02T07:40:31;-1.20;74.90
13332;DHT22;6735;51.456;12.626;2023-03-02T07:42:56;-1.00;74.90
13332;DHT22;6735;51.456;12.626;2023-03-02T07:45:22;-0.90;74.70
13332;DHT22;6735;51.456;12.626;2023-03-02T07:47:49;-0.80;75.00
13332;DHT22;6735;51.456;12.626;2023-03-02T07:50:15;-0.70;74.20
13332;DHT22;6735;51.456;12.626;2023-03-02T07:52:40;-0.50;73.80
13332;DHT22;6735;51.456;12.626;2023-03-02T07:55:06;-0.40;74.10
13332;DHT22;6735;51.456;12.626;2023-03-02T07:57:32;0.10;73.30
13332;DHT22;6735;51.456;12.626;2023-03-02T07:59:57;0.70;71.50
13332;DHT22;6735;51.456;12.626;2023-03-02T08:02:23;1.40;70.10
13332;DHT22;6735;51.456;12.626;2023-03-02T08:04:50;2.20;67.80
13332;DHT22;6735;51.456;12.626;2023-03-02T08:07:16;2.70;66.60
13332;DHT22;6735;51.456;12.626;2023-03-02T08:09:42;3.30;65.10
13332;DHT22;6735;51.456;12.626;2023-03-02T08:12:08;3.40;63.50
13332;DHT22;6735;51.456;12.626;2023-03-02T08:14:33;3.80;63.20
13332;DHT22;6735;51.456;12.626;2023-03-02T08:16:59;4.00;62.50
13332;DHT22;6735;51.456;12.626;2023-03-02T08:19:24;4.40;61.60
13332;DHT22;6735;51.456;12.626;2023-03-02T08:21:50;4.70;60.70
13332;DHT22;6735;51.456;12.626;2023-03-02T08:24:16;5.00;60.90
13332;DHT22;6735;51.456;12.626;2023-03-02T08:26:42;5.20;60.00
13332;DHT22;6735;51.456;12.626;2023-03-02T08:29:07;5.20;60.60
13332;DHT22;6735;51.456;12.626;2023-03-02T08:31:33;5.60;59.90
13332;DHT22;6735;51.456;12.626;2023-03-02T08:33:59;5.70;58.50
13332;DHT22;6735;51.456;12.626;2023-03-02T08:36:24;6.00;57.10
13332;DHT22;6735;51.456;12.626;2023-03-02T08:38:50;6.40;56.70
13332;DHT22;6735;51.456;12.626;2023-03-02T08:41:21;6.60;55.00
13332;DHT22;6735;51.456;12.626;2023-03-02T08:43:48;6.70;55.90
13332;DHT22;6735;51.456;12.626;2023-03-02T08:46:16;6.70;54.60
13332;DHT22;6735;51.456;12.626;2023-03-02T08:48:42;6.60;56.10
13332;DHT22;6735;51.456;12.626;2023-03-02T08:51:13;6.60;51.90
13332;DHT22;6735;51.456;12.626;2023-03-02T08:53:42;6.60;53.40
13332;DHT22;6735;51.456;12.626;2023-03-02T08:56:16;6.90;54.50
13332;DHT22;6735;51.456;12.626;2023-03-02T08:58:42;6.80;53.00
13332;DHT22;6735;51.456;12.626;2023-03-02T09:01:19;6.50;52.00
13332;DHT22;6735;51.456;12.626;2023-03-02T09:03:45;6.60;51.90
13332;DHT22;6735;51.456;12.626;2023-03-02T09:06:11;6.60;52.30
13332;DHT22;6735;51.456;12.626;2023-03-02T09:08:37;7.00;51.10
13332;DHT22;6735;51.456;12.626;2023-03-02T09:11:03;7.10;50.70
13332;DHT22;6735;51.456;12.626;2023-03-02T09:13:29;7.20;51.10
13332;DHT22;6735;51.456;12.626;2023-03-02T09:15:54;7.40;47.90
13332;DHT22;6735;51.456;12.626;2023-03-02T09:18:20;6.90;47.50
13332;DHT22;6735;51.456;12.626;2023-03-02T09:20:52;7.00;50.10
13332;DHT22;6735;51.456;12.626;2023-03-02T09:23:18;7.20;49.80
13332;DHT22;6735;51.456;12.626;2023-03-02T09:25:44;7.50;49.20
13332;DHT22;6735;51.456;12.626;2023-03-02T09:28:11;7.60;48.60
13332;DHT22;6735;51.456;12.626;2023-03-02T09:30:37;7.40;49.80
13332;DHT22;6735;51.456;12.626;2023-03-02T09:33:02;7.50;50.20
13332;DHT22;6735;51.456;12.626;2023-03-02T09:35:28;7.90;47.80
13332;DHT22;6735;51.456;12.626;2023-03-02T09:37:53;7.60;46.50
13332;DHT22;6735;51.456;12.626;2023-03-02T09:40:24;7.70;47.60
13332;DHT22;6735;51.456;12.626;2023-03-02T09:45:51;7.60;43.90
13332;DHT22;6735;51.456;12.626;2023-03-02T09:51:25;7.30;46.10
13332;DHT22;6735;51.456;12.626;2023-03-02T09:56:23;7.50;45.90
13332;DHT22;6735;51.456;12.626;2023-03-02T09:59:00;7.20;46.50
13332;DHT22;6735;51.456;12.626;2023-03-02T10:01:38;7.20;46.10
13332;DHT22;6735;51.456;12.626;2023-03-02T10:04:12;6.80;45.90
13332;DHT22;6735;51.456;12.626;2023-03-02T10:06:39;6.80;47.10
13332;DHT22;6735;51.456;12.626;2023-03-02T10:09:05;6.90;47.00
13332;DHT22;6735;51.456;12.626;2023-03-02T10:11:35;6.90;47.20
13332;DHT22;6735;51.456;12.626;2023-03-02T10:14:16;6.80;46.70
13332;DHT22;6735;51.456;12.626;2023-03-02T10:17:03;6.60;47.10
13332;DHT22;6735;51.456;12.626;2023-03-02T10:19:42;6.40;46.60
13332;DHT22;6735;51.456;12.626;2023-03-02T10:27:41;6.50;47.30
13332;DHT22;6735;51.456;12.626;2023-03-02T10:30:14;6.40;47.60
13332;DHT22;6735;51.456;12.626;2023-03-02T10:32:50;6.50;47.90
13332;DHT22;6735;51.456;12.626;2023-03-02T10:35:19;6.40;48.20
13332;DHT22;6735;51.456;12.626;2023-03-02T10:37:45;6.40;48.20
13332;DHT22;6735;51.456;12.626;2023-03-02T10:42:53;6.50;48.80
13332;DHT22;6735;51.456;12.626;2023-03-02T10:45:27;6.50;48.70
13332;DHT22;6735;51.456;12.626;2023-03-02T10:48:01;6.50;48.90
13332;DHT22;6735;51.456;12.626;2023-03-02T10:50:27;6.50;49.20
13332;DHT22;6735;51.456;12.626;2023-03-02T10:52:54;6.50;49.40
13332;DHT22;6735;51.456;12.626;2023-03-02T10:55:20;6.60;49.50
13332;DHT22;6735;51.456;12.626;2023-03-02T11:00:28;6.50;49.70
13332;DHT22;6735;51.456;12.626;2023-03-02T11:03:02;6.60;50.30
13332;DHT22;6735;51.456;12.626;2023-03-02T11:05:31;6.50;50.60
13332;DHT22;6735;51.456;12.626;2023-03-02T11:08:01;6.50;50.70
13332;DHT22;6735;51.456;12.626;2023-03-02T11:10:33;6.50;50.80
13332;DHT22;6735;51.456;12.626;2023-03-02T11:13:02;6.50;51.20
13332;DHT22;6735;51.456;12.626;2023-03-02T11:15:49;6.60;51.30
13332;DHT22;6735;51.456;12.626;2023-03-02T11:18:34;6.60;51.80
13332;DHT22;6735;51.456;12.626;2023-03-02T11:21:08;6.60;51.40
13332;DHT22;6735;51.456;12.626;2023-03-02T11:23:58;6.70;51.60
13332;DHT22;6735;51.456;12.626;2023-03-02T11:26:37;6.80;52.00
13332;DHT22;6735;51.456;12.626;2023-03-02T11:29:14;6.80;52.00
13332;DHT22;6735;51.456;12.626;2023-03-02T11:31:49;6.90;52.10
13332;DHT22;6735;51.456;12.626;2023-03-02T11:34:25;6.90;51.70
13332;DHT22;6735;51.456;12.626;2023-03-02T11:37:20;6.90;52.20
13332;DHT22;6735;51.456;12.626;2023-03-02T11:42:37;7.10;52.50
13332;DHT22;6735;51.456;12.626;2023-03-02T11:45:31;7.10;52.20
13332;DHT22;6735;51.456;12.626;2023-03-02T11:48:03;7.00;52.30
13332;DHT22;6735;51.456;12.626;2023-03-02T11:50:38;7.00;52.40
13332;DHT22;6735;51.456;12.626;2023-03-02T11:53:10;6.90;52.80
13332;DHT22;6735;51.456;12.626;2023-03-02T11:55:44;7.00;52.60
13332;DHT22;6735;51.456;12.626;2023-03-02T11:58:15;7.10;52.40
13332;DHT22;6735;51.456;12.626;2023-03-02T12:00:42;7.10;52.30
13332;DHT22;6735;51.456;12.626;2023-03-02T12:05:40;7.10;52.30
13332;DHT22;6735;51.456;12.626;2023-03-02T12:08:36;7.20;52.20
13332;DHT22;6735;51.456;12.626;2023-03-02T12:13:38;7.30;52.30
13332;DHT22;6735;51.456;12.626;2023-03-02T12:16:22;7.20;52.00
13332;DHT22;6735;51.456;12.626;2023-03-02T12:18:49;7.20;51.80
13332;DHT22;6735;51.456;12.626;2023-03-02T12:21:21;7.30;52.00
13332;DHT22;6735;51.456;12.626;2023-03-02T12:31:45;7.60;51.90
13332;DHT22;6735;51.456;12.626;2023-03-02T12:37:00;7.60;51.70
13332;DHT22;6735;51.456;12.626;2023-03-02T12:51:04;7.90;52.00
13332;DHT22;6735;51.456;12.626;2023-03-02T12:53:37;7.80;51.70
13332;DHT22;6735;51.456;12.626;2023-03-02T12:56:05;7.90;51.90
13332;DHT22;6735;51.456;12.626;2023-03-02T12:58:31;7.80;52.10
13332;DHT22;6735;51.456;12.626;2023-03-02T13:01:00;7.90;51.90
13332;DHT22;6735;51.456;12.626;2023-03-02T13:03:28;7.90;51.60
13332;DHT22;6735;51.456;12.626;2023-03-02T13:06:10;7.90;51.70
13332;DHT22;6735;51.456;12.626;2023-03-02T13:08:37;8.00;51.90
13332;DHT22;6735;51.456;12.626;2023-03-02T13:11:03;8.00;51.70
13332;DHT22;6735;51.456;12.626;2023-03-02T13:13:39;8.00;51.90
13332;DHT22;6735;51.456;12.626;2023-03-02T13:16:16;8.10;51.40
13332;DHT22;6735;51.456;12.626;2023-03-02T13:18:43;8.10;51.70
13332;DHT22;6735;51.456;12.626;2023-03-02T13:21:12;8.00;51.80
13332;DHT22;6735;51.456;12.626;2023-03-02T13:23:44;8.00;51.80
13332;DHT22;6735;51.456;12.626;2023-03-02T13:26:33;8.10;52.00
13332;DHT22;6735;51.456;12.626;2023-03-02T13:29:05;8.10;52.00
13332;DHT22;6735;51.456;12.626;2023-03-02T13:31:32;8.10;52.20
13332;DHT22;6735;51.456;12.626;2023-03-02T13:33:59;8.10;51.90
13332;DHT22;6735;51.456;12.626;2023-03-02T13:36:36;8.20;52.20
13332;DHT22;6735;51.456;12.626;2023-03-02T13:39:04;8.40;51.80
13332;DHT22;6735;51.456;12.626;2023-03-02T13:41:34;8.50;51.70
13332;DHT22;6735;51.456;12.626;2023-03-02T13:44:18;8.60;51.10
13332;DHT22;6735;51.456;12.626;2023-03-02T13:46:44;8.60;50.90
13332;DHT22;6735;51.456;12.626;2023-03-02T13:49:10;8.70;50.90
13332;DHT22;6735;51.456;12.626;2023-03-02T13:51:39;8.70;50.70
13332;DHT22;6735;51.456;12.626;2023-03-02T13:54:20;8.80;50.90
13332;DHT22;6735;51.456;12.626;2023-03-02T13:56:46;8.90;51.10
13332;DHT22;6735;51.456;12.626;2023-03-02T13:59:14;9.00;51.20
13332;DHT22;6735;51.456;12.626;2023-03-02T14:01:40;8.90;51.50
13332;DHT22;6735;51.456;12.626;2023-03-02T14:04:10;8.90;52.10
13332;DHT22;6735;51.456;12.626;2023-03-02T14:06:36;8.90;52.70
13332;DHT22;6735;51.456;12.626;2023-03-02T14:09:02;8.90;52.50
13332;DHT22;6735;51.456;12.626;2023-03-02T14:11:33;8.90;52.10
13332;DHT22;6735;51.456;12.626;2023-03-02T14:13:59;9.00;51.90
13332;DHT22;6735;51.456;12.626;2023-03-02T14:16:27;9.00;52.20
13332;DHT22;6735;51.456;12.626;2023-03-02T14:18:53;9.00;52.70
13332;DHT22;6735;51.456;12.626;2023-03-02T14:21:23;9.00;53.20
13332;DHT22;6735;51.456;12.626;2023-03-02T14:23:49;8.90;53.50
13332;DHT22;6735;51.456;12.626;2023-03-02T14:28:48;8.90;53.90
13332;DHT22;6735;51.456;12.626;2023-03-02T14:31:13;8.90;53.80
13332;DHT22;6735;51.456;12.626;2023-03-02T14:33:39;8.90;53.60
13332;DHT22;6735;51.456;12.626;2023-03-02T14:36:05;8.90;53.70
13332;DHT22;6735;51.456;12.626;2023-03-02T14:38:31;8.90;53.90
13332;DHT22;6735;51.456;12.626;2023-03-02T14:40:57;8.80;53.80
13332;DHT22;6735;51.456;12.626;2023-03-02T14:43:22;8.80;54.00
13332;DHT22;6735;51.456;12.626;2023-03-02T14:45:50;8.70;54.00
13332;DHT22;6735;51.456;12.626;2023-03-02T14:48:16;8.70;54.20
13332;DHT22;6735;51.456;12.626;2023-03-02T14:50:45;8.70;54.30
13332;DHT22;6735;51.456;12.626;2023-03-02T14:53:25;8.60;54.40
13332;DHT22;6735;51.456;12.626;2023-03-02T14:55:52;8.60;54.30
13332;DHT22;6735;51.456;12.626;2023-03-02T14:58:19;8.50;54.30
13332;DHT22;6735;51.456;12.626;2023-03-02T15:00:49;8.50;54.50
13332;DHT22;6735;51.456;12.626;2023-03-02T15:03:16;8.50;54.50
13332;DHT22;6735;51.456;12.626;2023-03-02T15:05:51;8.40;54.60
13332;DHT22;6735;51.456;12.626;2023-03-02T15:08:21;8.40;54.80
13332;DHT22;6735;51.456;12.626;2023-03-02T15:10:48;8.50;54.90
13332;DHT22;6735;51.456;12.626;2023-03-02T15:13:14;8.40;55.10
13332;DHT22;6735;51.456;12.626;2023-03-02T15:15:41;8.40;55.30
13332;DHT22;6735;51.456;12.626;2023-03-02T15:18:07;8.30;55.40
13332;DHT22;6735;51.456;12.626;2023-03-02T15:20:33;8.30;55.60
13332;DHT22;6735;51.456;12.626;2023-03-02T15:22:59;8.30;55.70
13332;DHT22;6735;51.456;12.626;2023-03-02T15:25:24;8.20;56.00
13332;DHT22;6735;51.456;12.626;2023-03-02T15:27:55;8.20;56.20
13332;DHT22;6735;51.456;12.626;2023-03-02T15:30:21;8.20;56.70
13332;DHT22;6735;51.456;12.626;2023-03-02T15:32:48;8.10;56.90
13332;DHT22;6735;51.456;12.626;2023-03-02T15:35:14;8.10;56.80
13332;DHT22;6735;51.456;12.626;2023-03-02T15:37:39;8.10;57.00
13332;DHT22;6735;51.456;12.626;2023-03-02T15:40:06;8.10;57.10
13332;DHT22;6735;51.456;12.626;2023-03-02T15:42:31;8.10;57.10
13332;DHT22;6735;51.456;12.626;2023-03-02T15:44:57;8.10;57.20
13332;DHT22;6735;51.456;12.626;2023-03-02T15:47:23;8.00;57.80
13332;DHT22;6735;51.456;12.626;2023-03-02T15:49:48;8.00;58.00
13332;DHT22;6735;51.456;12.626;2023-03-02T15:52:14;7.90;58.30
13332;DHT22;6735;51.456;12.626;2023-03-02T15:54:39;7.80;58.30
13332;DHT22;6735;51.456;12.626;2023-03-02T15:57:05;7.80;58.50
13332;DHT22;6735;51.456;12.626;2023-03-02T15:59:31;7.70;59.10
13332;DHT22;6735;51.456;12.626;2023-03-02T16:01:57;7.70;58.80
13332;DHT22;6735;51.456;12.626;2023-03-02T16:04:24;7.70;58.90
13332;DHT22;6735;51.456;12.626;2023-03-02T16:06:50;7.70;58.90
13332;DHT22;6735;51.456;12.626;2023-03-02T16:09:16;7.60;59.30
13332;DHT22;6735;51.456;12.626;2023-03-02T16:11:42;7.60;59.10
13332;DHT22;6735;51.456;12.626;2023-03-02T16:14:08;7.50;59.40
13332;DHT22;6735;51.456;12.626;2023-03-02T16:16:34;7.40;59.70
13332;DHT22;6735;51.456;12.626;2023-03-02T16:18:59;7.40;59.70
13332;DHT22;6735;51.456;12.626;2023-03-02T16:21:26;7.30;59.80
13332;DHT22;6735;51.456;12.626;2023-03-02T16:23:53;7.30;59.90
13332;DHT22;6735;51.456;12.626;2023-03-02T16:26:20;7.20;60.10
13332;DHT22;6735;51.456;12.626;2023-03-02T16:28:47;7.10;60.30
13332;DHT22;6735;51.456;12.626;2023-03-02T16:31:18;7.10;60.50
13332;DHT22;6735;51.456;12.626;2023-03-02T16:33:44;7.10;60.60
13332;DHT22;6735;51.456;12.626;2023-03-02T16:36:11;7.00;61.10
13332;DHT22;6735;51.456;12.626;2023-03-02T16:38:38;6.90;61.10